sensor_id;sensor_type;location;lat;lon;timestamp;P1;durP1;ratioP1;P2;durP2;ratioP2
4132;SDS011;2080;51.038;7.008;2023-03-01T00:01:07;1999.90;;;999.90;;
4132;SDS011;2080;51.038;7.008;2023-03-01T00:03:35;1999.90;;;999.90;;
4132;SDS011;2080;51.038;7.008;2023-03-01T00:06:01;1999.90;;;999.90;;
4132;SDS011;2080;51.038;7.008;2023-03-01T00:08:26;1999.90;;;999.90;;
4132;SDS011;2080;51.038;7.008;2023-03-01T00:13:50;1999.90;;;999.90;;
4132;SDS011;2080;51.038;7.008;2023-03-01T00:16:19;1999.90;;;999.90;;
4132;SDS011;2080;51.038;7.008;2023-03-01T00:18:53;1999.90;;;999.90;;
4132;SDS011;2080;51.038;7.008;2023-03-01T00:21:19;1999.90;;;999.90;;
4132;SDS011;2080;51.038;7.008;2023-03-01T00:23:47;1999.90;;;999.90;;
4132;SDS011;2080;51.038;7.008;2023-03-01T00:26:13;1999.90;;;999.90;;
4132;SDS011;2080;51.038;7.008;2023-03-01T00:28:39;1999.90;;;999.90;;
4132;SDS011;2080;51.038;7.008;2023-03-01T00:31:12;1999.90;;;999.90;;
4132;SDS011;2080;51.038;7.008;2023-03-01T00:33:42;1999.90;;;999.90;;
4132;SDS011;2080;51.038;7.008;2023-03-01T00:36:08;1999.90;;;999.90;;
4132;SDS011;2080;51.038;7.008;2023-03-01T00:38:36;1999.90;;;999.90;;
4132;SDS011;2080;51.038;7.008;2023-03-01T00:41:03;1999.90;;;999.90;;
4132;SDS011;2080;51.038;7.008;2023-03-01T00:43:30;1999.90;;;999.90;;
4132;SDS011;2080;51.038;7.008;2023-03-01T00:45:58;1999.90;;;999.90;;
4132;SDS011;2080;51.038;7.008;2023-03-01T00:48:28;1603.30;;;911.93;;
4132;SDS011;2080;51.038;7.008;2023-03-01T00:50:53;472.93;;;396.90;;
4132;SDS011;2080;51.038;7.008;2023-03-01T00:53:19;943.10;;;469.60;;
4132;SDS011;2080;51.038;7.008;2023-03-01T00:55:44;437.33;;;288.03;;
4132;SDS011;2080;51.038;7.008;2023-03-01T00:58:12;447.67;;;378.97;;
4132;SDS011;2080;51.038;7.008;2023-03-01T01:00:40;419.73;;;257.97;;
4132;SDS011;2080;51.038;7.008;2023-03-01T01:03:07;385.00;;;169.17;;
4132;SDS011;2080;51.038;7.008;2023-03-01T01:05:34;408.77;;;222.97;;
4132;SDS011;2080;51.038;7.008;2023-03-01T01:08:00;420.47;;;218.23;;
4132;SDS011;2080;51.038;7.008;2023-03-01T01:10:25;1499.67;;;814.97;;
4132;SDS011;2080;51.038;7.008;2023-03-01T01:12:50;564.87;;;508.17;;
4132;SDS011;2080;51.038;7.008;2023-03-01T01:15:18;421.30;;;303.77;;
4132;SDS011;2080;51.038;7.008;2023-03-01T01:17:45;371.43;;;139.37;;
4132;SDS011;2080;51.038;7.008;2023-03-01T01:20:13;440.80;;;315.93;;
4132;SDS011;2080;51.038;7.008;2023-03-01T01:22:40;368.07;;;117.10;;
4132;SDS011;2080;51.038;7.008;2023-03-01T01:25:06;337.20;;;89.00;;
4132;SDS011;2080;51.038;7.008;2023-03-01T01:27:36;367.17;;;145.20;;
4132;SDS011;2080;51.038;7.008;2023-03-01T01:30:04;442.10;;;298.37;;
4132;SDS011;2080;51.038;7.008;2023-03-01T01:32:29;354.63;;;103.07;;
4132;SDS011;2080;51.038;7.008;2023-03-01T01:35:00;400.50;;;209.20;;
4132;SDS011;2080;51.038;7.008;2023-03-01T01:37:28;348.23;;;107.10;;
4132;SDS011;2080;51.038;7.008;2023-03-01T01:39:59;1446.83;;;689.83;;
4132;SDS011;2080;51.038;7.008;2023-03-01T01:42:29;1445.23;;;688.03;;
4132;SDS011;2080;51.038;7.008;2023-03-01T01:45:58;437.33;;;262.40;;
4132;SDS011;2080;51.038;7.008;2023-03-01T01:48:03;396.23;;;207.63;;
4132;SDS011;2080;51.038;7.008;2023-03-01T01:50:33;359.60;;;137.30;;
4132;SDS011;2080;51.038;7.008;2023-03-01T01:53:05;384.97;;;182.27;;
4132;SDS011;2080;51.038;7.008;2023-03-01T01:55:38;1438.10;;;691.40;;
4132;SDS011;2080;51.038;7.008;2023-03-01T01:58:12;1484.13;;;784.07;;
4132;SDS011;2080;51.038;7.008;2023-03-01T02:00:45;392.47;;;171.07;;
4132;SDS011;2080;51.038;7.008;2023-03-01T02:03:12;335.97;;;88.90;;
4132;SDS011;2080;51.038;7.008;2023-03-01T02:08:28;1465.30;;;745.47;;
4132;SDS011;2080;51.038;7.008;2023-03-01T02:11:01;424.27;;;232.87;;
4132;SDS011;2080;51.038;7.008;2023-03-01T02:13:29;517.07;;;455.57;;
4132;SDS011;2080;51.038;7.008;2023-03-01T02:15:55;1999.90;;;999.90;;
4132;SDS011;2080;51.038;7.008;2023-03-01T02:18:25;1503.63;;;818.77;;
4132;SDS011;2080;51.038;7.008;2023-03-01T02:23:38;1999.90;;;999.90;;
4132;SDS011;2080;51.038;7.008;2023-03-01T02:31:00;411.70;;;190.40;;
4132;SDS011;2080;51.038;7.008;2023-03-01T02:33:45;950.17;;;497.30;;
4132;SDS011;2080;51.038;7.008;2023-03-01T02:36:20;428.67;;;306.37;;
4132;SDS011;2080;51.038;7.008;2023-03-01T02:38:52;1472.87;;;753.13;;
4132;SDS011;2080;51.038;7.008;2023-03-01T02:41:21;974.97;;;570.87;;
4132;SDS011;2080;51.038;7.008;2023-03-01T02:43:52;354.97;;;128.23;;
4132;SDS011;2080;51.038;7.008;2023-03-01T02:46:19;414.17;;;233.07;;
4132;SDS011;2080;51.038;7.008;2023-03-01T02:48:48;588.83;;;527.63;;
4132;SDS011;2080;51.038;7.008;2023-03-01T02:56:35;1459.93;;;721.10;;
4132;SDS011;2080;51.038;7.008;2023-03-01T02:59:00;568.57;;;511.00;;
4132;SDS011;2080;51.038;7.008;2023-03-01T03:01:27;405.47;;;194.40;;
4132;SDS011;2080;51.038;7.008;2023-03-01T03:04:02;354.60;;;105.67;;
4132;SDS011;2080;51.038;7.008;2023-03-01T03:06:31;341.73;;;97.90;;
4132;SDS011;2080;51.038;7.008;2023-03-01T03:09:02;370.77;;;106.47;;
4132;SDS011;2080;51.038;7.008;2023-03-01T03:11:28;371.50;;;116.10;;
4132;SDS011;2080;51.038;7.008;2023-03-01T03:13:57;439.13;;;286.73;;
4132;SDS011;2080;51.038;7.008;2023-03-01T03:16:23;429.60;;;285.90;;
4132;SDS011;2080;51.038;7.008;2023-03-01T03:18:51;363.83;;;107.57;;
4132;SDS011;2080;51.038;7.008;2023-03-01T03:21:17;630.57;;;566.70;;
4132;SDS011;2080;51.038;7.008;2023-03-01T03:23:42;689.30;;;624.50;;
4132;SDS011;2080;51.038;7.008;2023-03-01T03:26:10;891.77;;;813.23;;
4132;SDS011;2080;51.038;7.008;2023-03-01T03:28:38;500.67;;;447.50;;
4132;SDS011;2080;51.038;7.008;2023-03-01T03:31:06;504.33;;;439.63;;
4132;SDS011;2080;51.038;7.008;2023-03-01T03:33:32;540.37;;;483.13;;
4132;SDS011;2080;51.038;7.008;2023-03-01T03:36:03;558.00;;;495.50;;
4132;SDS011;2080;51.038;7.008;2023-03-01T03:38:31;424.37;;;247.67;;
4132;SDS011;2080;51.038;7.008;2023-03-01T03:41:00;512.47;;;428.70;;
4132;SDS011;2080;51.038;7.008;2023-03-01T03:43:27;412.70;;;202.27;;
4132;SDS011;2080;51.038;7.008;2023-03-01T03:45:53;427.43;;;251.13;;
4132;SDS011;2080;51.038;7.008;2023-03-01T03:48:19;379.63;;;136.93;;
4132;SDS011;2080;51.038;7.008;2023-03-01T03:50:52;367.93;;;92.33;;
4132;SDS011;2080;51.038;7.008;2023-03-01T03:53:19;350.10;;;105.83;;
4132;SDS011;2080;51.038;7.008;2023-03-01T03:55:48;422.97;;;261.13;;
4132;SDS011;2080;51.038;7.008;2023-03-01T03:58:17;412.97;;;185.77;;
4132;SDS011;2080;51.038;7.008;2023-03-01T04:00:44;414.10;;;221.70;;
4132;SDS011;2080;51.038;7.008;2023-03-01T04:03:12;357.03;;;116.33;;
4132;SDS011;2080;51.038;7.008;2023-03-01T04:05:41;466.27;;;367.13;;
4132;SDS011;2080;51.038;7.008;2023-03-01T04:08:09;347.47;;;98.63;;
4132;SDS011;2080;51.038;7.008;2023-03-01T04:10:36;365.87;;;148.10;;
4132;SDS011;2080;51.038;7.008;2023-03-01T04:13:02;391.97;;;170.33;;
4132;SDS011;2080;51.038;7.008;2023-03-01T04:15:35;460.47;;;345.40;;
4132;SDS011;2080;51.038;7.008;2023-03-01T04:18:00;400.03;;;167.77;;
4132;SDS011;2080;51.038;7.008;2023-03-01T04:20:29;375.90;;;128.53;;
4132;SDS011;2080;51.038;7.008;2023-03-01T04:23:06;418.00;;;251.53;;
4132;SDS011;2080;51.038;7.008;2023-03-01T04:25:48;358.07;;;80.97;;
4132;SDS011;2080;51.038;7.008;2023-03-01T04:28:38;338.80;;;83.57;;
4132;SDS011;2080;51.038;7.008;2023-03-01T04:31:06;1999.90;;;999.90;;
4132;SDS011;2080;51.038;7.008;2023-03-01T04:33:40;1999.90;;;999.90;;
4132;SDS011;2080;51.038;7.008;2023-03-01T04:36:16;596.17;;;537.70;;
4132;SDS011;2080;51.038;7.008;2023-03-01T04:38:44;358.57;;;111.10;;
4132;SDS011;2080;51.038;7.008;2023-03-01T04:41:14;459.50;;;347.33;;
4132;SDS011;2080;51.038;7.008;2023-03-01T04:43:41;445.90;;;315.17;;
4132;SDS011;2080;51.038;7.008;2023-03-01T04:46:07;924.87;;;422.17;;
4132;SDS011;2080;51.038;7.008;2023-03-01T04:48:39;995.87;;;604.10;;
4132;SDS011;2080;51.038;7.008;2023-03-01T04:51:08;444.80;;;283.50;;
4132;SDS011;2080;51.038;7.008;2023-03-01T04:53:34;600.10;;;540.33;;
4132;SDS011;2080;51.038;7.008;2023-03-01T04:56:03;504.87;;;445.27;;
4132;SDS011;2080;51.038;7.008;2023-03-01T04:58:29;346.17;;;105.40;;
4132;SDS011;2080;51.038;7.008;2023-03-01T05:00:55;1459.17;;;715.07;;
4132;SDS011;2080;51.038;7.008;2023-03-01T05:03:20;735.00;;;666.90;;
4132;SDS011;2080;51.038;7.008;2023-03-01T05:05:47;418.13;;;175.37;;
4132;SDS011;2080;51.038;7.008;2023-03-01T05:08:16;394.97;;;146.80;;
4132;SDS011;2080;51.038;7.008;2023-03-01T05:10:52;364.30;;;114.03;;
4132;SDS011;2080;51.038;7.008;2023-03-01T05:13:18;543.90;;;487.43;;
4132;SDS011;2080;51.038;7.008;2023-03-01T05:15:47;376.50;;;110.57;;
4132;SDS011;2080;51.038;7.008;2023-03-01T05:18:16;398.43;;;168.20;;
4132;SDS011;2080;51.038;7.008;2023-03-01T05:20:44;663.33;;;600.70;;
4132;SDS011;2080;51.038;7.008;2023-03-01T05:23:09;402.63;;;164.47;;
4132;SDS011;2080;51.038;7.008;2023-03-01T05:25:37;419.67;;;217.93;;
4132;SDS011;2080;51.038;7.008;2023-03-01T05:28:07;450.47;;;329.57;;
4132;SDS011;2080;51.038;7.008;2023-03-01T05:30:36;437.27;;;287.30;;
4132;SDS011;2080;51.038;7.008;2023-03-01T05:33:03;373.70;;;141.03;;
4132;SDS011;2080;51.038;7.008;2023-03-01T05:35:38;452.90;;;318.13;;
4132;SDS011;2080;51.038;7.008;2023-03-01T05:38:12;671.40;;;607.13;;
4132;SDS011;2080;51.038;7.008;2023-03-01T05:40:38;403.77;;;207.83;;
4132;SDS011;2080;51.038;7.008;2023-03-01T05:43:04;358.90;;;89.57;;
4132;SDS011;2080;51.038;7.008;2023-03-01T05:45:30;495.90;;;420.87;;
4132;SDS011;2080;51.038;7.008;2023-03-01T05:47:57;392.77;;;176.20;;
4132;SDS011;2080;51.038;7.008;2023-03-01T05:50:25;380.07;;;118.57;;
4132;SDS011;2080;51.038;7.008;2023-03-01T05:53:35;359.53;;;74.23;;
4132;SDS011;2080;51.038;7.008;2023-03-01T05:55:44;483.53;;;404.10;;
4132;SDS011;2080;51.038;7.008;2023-03-01T05:58:13;483.57;;;403.47;;
4132;SDS011;2080;51.038;7.008;2023-03-01T06:00:41;405.50;;;184.67;;
4132;SDS011;2080;51.038;7.008;2023-03-01T06:03:11;511.30;;;447.97;;
4132;SDS011;2080;51.038;7.008;2023-03-01T06:05:38;356.77;;;96.10;;
4132;SDS011;2080;51.038;7.008;2023-03-01T06:08:04;447.63;;;331.47;;
4132;SDS011;2080;51.038;7.008;2023-03-01T06:10:30;408.10;;;202.10;;
4132;SDS011;2080;51.038;7.008;2023-03-01T06:12:56;376.33;;;119.83;;
4132;SDS011;2080;51.038;7.008;2023-03-01T06:15:22;477.60;;;394.63;;
4132;SDS011;2080;51.038;7.008;2023-03-01T06:17:47;389.83;;;116.63;;
4132;SDS011;2080;51.038;7.008;2023-03-01T06:20:19;381.03;;;101.13;;
4132;SDS011;2080;51.038;7.008;2023-03-01T06:22:46;406.30;;;178.10;;
4132;SDS011;2080;51.038;7.008;2023-03-01T06:25:13;394.27;;;157.57;;
4132;SDS011;2080;51.038;7.008;2023-03-01T06:27:40;359.70;;;98.27;;
4132;SDS011;2080;51.038;7.008;2023-03-01T06:30:10;403.57;;;141.07;;
4132;SDS011;2080;51.038;7.008;2023-03-01T06:32:38;371.23;;;146.37;;
4132;SDS011;2080;51.038;7.008;2023-03-01T06:35:07;435.23;;;266.80;;
4132;SDS011;2080;51.038;7.008;2023-03-01T06:37:33;341.70;;;94.23;;
4132;SDS011;2080;51.038;7.008;2023-03-01T06:40:01;358.50;;;79.47;;
4132;SDS011;2080;51.038;7.008;2023-03-01T06:42:33;533.30;;;475.97;;
4132;SDS011;2080;51.038;7.008;2023-03-01T06:44:59;359.10;;;107.17;;
4132;SDS011;2080;51.038;7.008;2023-03-01T06:47:25;374.43;;;99.63;;
4132;SDS011;2080;51.038;7.008;2023-03-01T06:49:52;318.50;;;52.33;;
4132;SDS011;2080;51.038;7.008;2023-03-01T06:52:20;390.20;;;151.97;;
4132;SDS011;2080;51.038;7.008;2023-03-01T06:54:45;404.57;;;197.13;;
4132;SDS011;2080;51.038;7.008;2023-03-01T06:57:10;474.13;;;384.10;;
4132;SDS011;2080;51.038;7.008;2023-03-01T06:59:36;340.90;;;79.73;;
4132;SDS011;2080;51.038;7.008;2023-03-01T07:02:03;361.73;;;82.07;;
4132;SDS011;2080;51.038;7.008;2023-03-01T07:04:28;486.50;;;415.00;;
4132;SDS011;2080;51.038;7.008;2023-03-01T07:06:55;452.40;;;317.60;;
4132;SDS011;2080;51.038;7.008;2023-03-01T07:09:21;365.77;;;93.83;;
4132;SDS011;2080;51.038;7.008;2023-03-01T07:11:47;433.73;;;280.00;;
4132;SDS011;2080;51.038;7.008;2023-03-01T07:14:13;405.00;;;182.40;;
4132;SDS011;2080;51.038;7.008;2023-03-01T07:16:38;412.57;;;212.13;;
4132;SDS011;2080;51.038;7.008;2023-03-01T07:19:04;335.07;;;74.67;;
4132;SDS011;2080;51.038;7.008;2023-03-01T07:21:30;341.17;;;81.20;;
4132;SDS011;2080;51.038;7.008;2023-03-01T07:23:55;360.40;;;85.73;;
4132;SDS011;2080;51.038;7.008;2023-03-01T07:26:21;391.00;;;167.93;;
4132;SDS011;2080;51.038;7.008;2023-03-01T07:28:48;360.63;;;112.67;;
4132;SDS011;2080;51.038;7.008;2023-03-01T07:31:16;337.40;;;81.23;;
4132;SDS011;2080;51.038;7.008;2023-03-01T07:33:41;397.77;;;157.97;;
4132;SDS011;2080;51.038;7.008;2023-03-01T07:36:09;341.27;;;83.57;;
4132;SDS011;2080;51.038;7.008;2023-03-01T07:38:37;372.97;;;121.70;;
4132;SDS011;2080;51.038;7.008;2023-03-01T07:41:03;476.23;;;401.27;;
4132;SDS011;2080;51.038;7.008;2023-03-01T07:43:31;425.73;;;251.37;;
4132;SDS011;2080;51.038;7.008;2023-03-01T07:46:00;394.40;;;161.17;;
4132;SDS011;2080;51.038;7.008;2023-03-01T07:48:26;441.57;;;323.50;;
4132;SDS011;2080;51.038;7.008;2023-03-01T07:50:54;378.83;;;172.87;;
4132;SDS011;2080;51.038;7.008;2023-03-01T07:53:24;308.47;;;61.73;;
4132;SDS011;2080;51.038;7.008;2023-03-01T07:55:59;389.67;;;147.60;;
4132;SDS011;2080;51.038;7.008;2023-03-01T07:58:35;370.53;;;107.87;;
4132;SDS011;2080;51.038;7.008;2023-03-01T08:01:06;360.97;;;107.60;;
4132;SDS011;2080;51.038;7.008;2023-03-01T08:03:33;458.00;;;347.33;;
4132;SDS011;2080;51.038;7.008;2023-03-01T08:06:00;397.27;;;189.93;;
4132;SDS011;2080;51.038;7.008;2023-03-01T08:08:27;371.43;;;118.60;;
4132;SDS011;2080;51.038;7.008;2023-03-01T08:10:56;437.73;;;314.63;;
4132;SDS011;2080;51.038;7.008;2023-03-01T08:13:24;519.63;;;387.30;;
4132;SDS011;2080;51.038;7.008;2023-03-01T08:15:49;417.93;;;245.53;;
4132;SDS011;2080;51.038;7.008;2023-03-01T08:18:18;379.53;;;124.90;;
4132;SDS011;2080;51.038;7.008;2023-03-01T08:20:45;386.70;;;140.90;;
4132;SDS011;2080;51.038;7.008;2023-03-01T08:23:15;497.03;;;422.23;;
4132;SDS011;2080;51.038;7.008;2023-03-01T08:25:41;443.73;;;291.60;;
4132;SDS011;2080;51.038;7.008;2023-03-01T08:28:09;450.87;;;292.80;;
4132;SDS011;2080;51.038;7.008;2023-03-01T08:30:34;1506.90;;;821.80;;
4132;SDS011;2080;51.038;7.008;2023-03-01T08:33:00;445.03;;;317.10;;
4132;SDS011;2080;51.038;7.008;2023-03-01T08:35:27;772.23;;;704.03;;
4132;SDS011;2080;51.038;7.008;2023-03-01T08:37:52;555.23;;;498.87;;
4132;SDS011;2080;51.038;7.008;2023-03-01T08:40:18;649.87;;;585.87;;
4132;SDS011;2080;51.038;7.008;2023-03-01T08:42:43;812.47;;;739.83;;
4132;SDS011;2080;51.038;7.008;2023-03-01T08:45:09;1999.90;;;999.90;;
4132;SDS011;2080;51.038;7.008;2023-03-01T08:47:39;1999.90;;;999.90;;
4132;SDS011;2080;51.038;7.008;2023-03-01T08:50:07;1999.90;;;999.90;;
4132;SDS011;2080;51.038;7.008;2023-03-01T08:52:35;1999.90;;;999.90;;
4132;SDS011;2080;51.038;7.008;2023-03-01T08:55:03;1999.90;;;999.90;;
4132;SDS011;2080;51.038;7.008;2023-03-01T08:57:29;1999.90;;;999.90;;
4132;SDS011;2080;51.038;7.008;2023-03-01T08:59:54;1999.90;;;999.90;;
4132;SDS011;2080;51.038;7.008;2023-03-01T09:02:21;1999.90;;;999.90;;
4132;SDS011;2080;51.038;7.008;2023-03-01T09:04:47;1999.90;;;999.90;;
4132;SDS011;2080;51.038;7.008;2023-03-01T09:07:12;1999.90;;;999.90;;
4132;SDS011;2080;51.038;7.008;2023-03-01T09:09:37;1999.90;;;999.90;;
4132;SDS011;2080;51.038;7.008;2023-03-01T09:12:03;1999.90;;;999.90;;
4132;SDS011;2080;51.038;7.008;2023-03-01T09:14:31;1999.90;;;999.90;;
4132;SDS011;2080;51.038;7.008;2023-03-01T09:16:59;1999.90;;;999.90;;
4132;SDS011;2080;51.038;7.008;2023-03-01T09:19:27;1999.90;;;999.90;;
4132;SDS011;2080;51.038;7.008;2023-03-01T09:21:57;1999.90;;;999.90;;
4132;SDS011;2080;51.038;7.008;2023-03-01T09:24:23;1999.90;;;999.90;;
4132;SDS011;2080;51.038;7.008;2023-03-01T09:26:49;1999.90;;;999.90;;
4132;SDS011;2080;51.038;7.008;2023-03-01T09:29:17;1999.90;;;999.90;;
4132;SDS011;2080;51.038;7.008;2023-03-01T09:31:43;1999.90;;;999.90;;
4132;SDS011;2080;51.038;7.008;2023-03-01T09:34:08;1999.90;;;999.90;;
4132;SDS011;2080;51.038;7.008;2023-03-01T09:36:36;1999.90;;;999.90;;
4132;SDS011;2080;51.038;7.008;2023-03-01T09:39:02;1999.90;;;999.90;;
4132;SDS011;2080;51.038;7.008;2023-03-01T09:41:37;1999.90;;;999.90;;
4132;SDS011;2080;51.038;7.008;2023-03-01T09:46:58;1999.90;;;999.90;;
4132;SDS011;2080;51.038;7.008;2023-03-01T09:49:28;1999.90;;;999.90;;
4132;SDS011;2080;51.038;7.008;2023-03-01T09:54:44;1999.90;;;999.90;;
4132;SDS011;2080;51.038;7.008;2023-03-01T09:58:14;1999.90;;;999.90;;
4132;SDS011;2080;51.038;7.008;2023-03-01T10:11:37;449.23;;;291.33;;
4132;SDS011;2080;51.038;7.008;2023-03-01T10:14:19;429.43;;;279.13;;
4132;SDS011;2080;51.038;7.008;2023-03-01T10:16:57;461.80;;;372.40;;
4132;SDS011;2080;51.038;7.008;2023-03-01T10:19:32;475.77;;;365.60;;
4132;SDS011;2080;51.038;7.008;2023-03-01T10:24:41;491.37;;;407.83;;
4132;SDS011;2080;51.038;7.008;2023-03-01T10:27:13;496.83;;;422.97;;
4132;SDS011;2080;51.038;7.008;2023-03-01T10:30:09;543.53;;;486.07;;
4132;SDS011;2080;51.038;7.008;2023-03-01T10:32:38;523.20;;;466.40;;
4132;SDS011;2080;51.038;7.008;2023-03-01T10:37:57;433.07;;;267.00;;
4132;SDS011;2080;51.038;7.008;2023-03-01T10:40:29;605.23;;;543.83;;
4132;SDS011;2080;51.038;7.008;2023-03-01T10:42:57;814.17;;;739.83;;
4132;SDS011;2080;51.038;7.008;2023-03-01T10:48:13;737.33;;;667.37;;
4132;SDS011;2080;51.038;7.008;2023-03-01T10:53:28;849.00;;;775.70;;
4132;SDS011;2080;51.038;7.008;2023-03-01T10:58:32;777.07;;;708.17;;
4132;SDS011;2080;51.038;7.008;2023-03-01T11:03:42;949.50;;;868.57;;
4132;SDS011;2080;51.038;7.008;2023-03-01T11:06:19;666.40;;;604.40;;
4132;SDS011;2080;51.038;7.008;2023-03-01T11:08:47;525.03;;;469.40;;
4132;SDS011;2080;51.038;7.008;2023-03-01T11:13:57;799.90;;;729.87;;
4132;SDS011;2080;51.038;7.008;2023-03-01T11:16:30;730.00;;;663.97;;
4132;SDS011;2080;51.038;7.008;2023-03-01T11:21:36;773.13;;;705.23;;
4132;SDS011;2080;51.038;7.008;2023-03-01T11:24:06;881.40;;;804.90;;
4132;SDS011;2080;51.038;7.008;2023-03-01T11:26:38;777.27;;;708.67;;
4132;SDS011;2080;51.038;7.008;2023-03-01T11:29:11;833.27;;;760.27;;
4132;SDS011;2080;51.038;7.008;2023-03-01T11:31:54;794.40;;;724.77;;
4132;SDS011;2080;51.038;7.008;2023-03-01T11:37:13;691.33;;;628.13;;
4132;SDS011;2080;51.038;7.008;2023-03-01T11:39:51;813.70;;;743.90;;
4132;SDS011;2080;51.038;7.008;2023-03-01T11:42:34;712.73;;;649.03;;
4132;SDS011;2080;51.038;7.008;2023-03-01T11:45:10;815.73;;;745.10;;
4132;SDS011;2080;51.038;7.008;2023-03-01T11:52:42;914.03;;;836.07;;
4132;SDS011;2080;51.038;7.008;2023-03-01T12:14:54;560.13;;;503.47;;
4132;SDS011;2080;51.038;7.008;2023-03-01T12:18:21;833.50;;;761.23;;
4132;SDS011;2080;51.038;7.008;2023-03-01T12:20:45;787.00;;;717.87;;
4132;SDS011;2080;51.038;7.008;2023-03-01T12:23:35;695.70;;;632.30;;
4132;SDS011;2080;51.038;7.008;2023-03-01T12:28:49;867.13;;;792.40;;
4132;SDS011;2080;51.038;7.008;2023-03-01T12:49:41;750.90;;;681.57;;
4132;SDS011;2080;51.038;7.008;2023-03-01T12:54:49;609.33;;;551.63;;
4132;SDS011;2080;51.038;7.008;2023-03-01T12:57:21;469.47;;;410.17;;
4132;SDS011;2080;51.038;7.008;2023-03-01T13:11:51;470.23;;;412.40;;
4132;SDS011;2080;51.038;7.008;2023-03-01T13:16:48;470.13;;;412.00;;
4132;SDS011;2080;51.038;7.008;2023-03-01T13:19:21;444.67;;;342.60;;
4132;SDS011;2080;51.038;7.008;2023-03-01T13:21:49;450.87;;;376.33;;
4132;SDS011;2080;51.038;7.008;2023-03-01T13:24:49;444.10;;;390.10;;
4132;SDS011;2080;51.038;7.008;2023-03-01T13:27:26;476.97;;;425.40;;
4132;SDS011;2080;51.038;7.008;2023-03-01T13:29:55;463.30;;;394.47;;
4132;SDS011;2080;51.038;7.008;2023-03-01T13:32:29;499.23;;;445.83;;
4132;SDS011;2080;51.038;7.008;2023-03-01T13:37:43;400.47;;;246.20;;
4132;SDS011;2080;51.038;7.008;2023-03-01T13:42:55;393.40;;;264.13;;
4132;SDS011;2080;51.038;7.008;2023-03-01T13:45:25;462.93;;;373.30;;
4132;SDS011;2080;51.038;7.008;2023-03-01T13:48:30;494.27;;;440.77;;
4132;SDS011;2080;51.038;7.008;2023-03-01T13:51:00;383.40;;;228.23;;
4132;SDS011;2080;51.038;7.008;2023-03-01T13:53:31;414.63;;;289.33;;
4132;SDS011;2080;51.038;7.008;2023-03-01T13:56:02;842.57;;;755.07;;
4132;SDS011;2080;51.038;7.008;2023-03-01T13:58:33;642.03;;;583.13;;
4132;SDS011;2080;51.038;7.008;2023-03-01T14:04:01;848.90;;;776.73;;
4132;SDS011;2080;51.038;7.008;2023-03-01T14:06:28;756.57;;;690.77;;
4132;SDS011;2080;51.038;7.008;2023-03-01T14:09:06;752.40;;;688.00;;
4132;SDS011;2080;51.038;7.008;2023-03-01T14:11:54;760.10;;;692.80;;
4132;SDS011;2080;51.038;7.008;2023-03-01T14:20:23;1115.23;;;999.90;;
4132;SDS011;2080;51.038;7.008;2023-03-01T14:22:53;974.90;;;892.20;;
4132;SDS011;2080;51.038;7.008;2023-03-01T14:25:30;987.70;;;903.70;;
4132;SDS011;2080;51.038;7.008;2023-03-01T14:28:13;894.53;;;818.70;;
4132;SDS011;2080;51.038;7.008;2023-03-01T14:30:43;1073.40;;;978.57;;
4132;SDS011;2080;51.038;7.008;2023-03-01T14:36:08;1171.00;;;999.90;;
4132;SDS011;2080;51.038;7.008;2023-03-01T14:38:36;1126.10;;;999.90;;
4132;SDS011;2080;51.038;7.008;2023-03-01T14:43:38;938.63;;;857.20;;
4132;SDS011;2080;51.038;7.008;2023-03-01T14:46:16;1067.23;;;968.70;;
4132;SDS011;2080;51.038;7.008;2023-03-01T14:48:48;1013.97;;;927.57;;
4132;SDS011;2080;51.038;7.008;2023-03-01T14:51:14;1276.73;;;999.90;;
4132;SDS011;2080;51.038;7.008;2023-03-01T14:53:43;1125.70;;;999.90;;
4132;SDS011;2080;51.038;7.008;2023-03-01T14:56:12;579.17;;;518.83;;
4132;SDS011;2080;51.038;7.008;2023-03-01T14:58:39;915.67;;;837.20;;
4132;SDS011;2080;51.038;7.008;2023-03-01T15:01:04;1071.00;;;972.93;;
4132;SDS011;2080;51.038;7.008;2023-03-01T15:03:31;858.83;;;781.77;;
4132;SDS011;2080;51.038;7.008;2023-03-01T15:05:58;1020.30;;;932.93;;
4132;SDS011;2080;51.038;7.008;2023-03-01T15:08:27;1039.33;;;947.30;;
4132;SDS011;2080;51.038;7.008;2023-03-01T15:13:42;1064.83;;;972.37;;
4132;SDS011;2080;51.038;7.008;2023-03-01T15:16:12;1066.93;;;974.47;;
4132;SDS011;2080;51.038;7.008;2023-03-01T15:18:44;1114.50;;;997.87;;
4132;SDS011;2080;51.038;7.008;2023-03-01T15:23:49;1111.77;;;999.03;;
4132;SDS011;2080;51.038;7.008;2023-03-01T15:26:23;843.73;;;771.27;;
4132;SDS011;2080;51.038;7.008;2023-03-01T15:29:11;989.83;;;902.23;;
4132;SDS011;2080;51.038;7.008;2023-03-01T15:31:53;861.20;;;787.17;;
4132;SDS011;2080;51.038;7.008;2023-03-01T15:34:32;997.63;;;912.03;;
4132;SDS011;2080;51.038;7.008;2023-03-01T15:37:00;1005.07;;;918.67;;
4132;SDS011;2080;51.038;7.008;2023-03-01T15:42:02;1160.50;;;999.90;;
4132;SDS011;2080;51.038;7.008;2023-03-01T15:44:33;1069.10;;;976.77;;
4132;SDS011;2080;51.038;7.008;2023-03-01T15:47:20;932.43;;;850.90;;
4132;SDS011;2080;51.038;7.008;2023-03-01T15:49:54;907.40;;;829.77;;
4132;SDS011;2080;51.038;7.008;2023-03-01T15:52:23;781.57;;;711.57;;
4132;SDS011;2080;51.038;7.008;2023-03-01T15:54:56;836.10;;;762.43;;
4132;SDS011;2080;51.038;7.008;2023-03-01T15:57:23;1051.40;;;959.67;;
4132;SDS011;2080;51.038;7.008;2023-03-01T15:59:48;920.57;;;840.97;;
4132;SDS011;2080;51.038;7.008;2023-03-01T16:02:14;957.07;;;875.10;;
4132;SDS011;2080;51.038;7.008;2023-03-01T16:04:39;1021.50;;;932.70;;
4132;SDS011;2080;51.038;7.008;2023-03-01T16:07:08;1069.17;;;973.90;;
4132;SDS011;2080;51.038;7.008;2023-03-01T16:09:34;816.07;;;745.03;;
4132;SDS011;2080;51.038;7.008;2023-03-01T16:12:00;973.23;;;890.80;;
4132;SDS011;2080;51.038;7.008;2023-03-01T16:14:26;1267.20;;;999.90;;
4132;SDS011;2080;51.038;7.008;2023-03-01T16:16:54;1067.60;;;972.30;;
4132;SDS011;2080;51.038;7.008;2023-03-01T16:19:20;1093.40;;;998.53;;
4132;SDS011;2080;51.038;7.008;2023-03-01T16:21:46;854.27;;;780.60;;
4132;SDS011;2080;51.038;7.008;2023-03-01T16:24:13;938.70;;;858.77;;
4132;SDS011;2080;51.038;7.008;2023-03-01T16:26:39;1035.40;;;944.70;;
4132;SDS011;2080;51.038;7.008;2023-03-01T16:29:07;1077.00;;;984.73;;
4132;SDS011;2080;51.038;7.008;2023-03-01T16:31:32;960.43;;;877.37;;
4132;SDS011;2080;51.038;7.008;2023-03-01T16:33:58;988.00;;;903.03;;
4132;SDS011;2080;51.038;7.008;2023-03-01T16:36:28;1054.20;;;962.03;;
4132;SDS011;2080;51.038;7.008;2023-03-01T16:38:56;1103.33;;;999.90;;
4132;SDS011;2080;51.038;7.008;2023-03-01T16:41:23;1105.13;;;999.90;;
4132;SDS011;2080;51.038;7.008;2023-03-01T16:43:51;1083.17;;;989.27;;
4132;SDS011;2080;51.038;7.008;2023-03-01T16:46:21;938.60;;;853.00;;
4132;SDS011;2080;51.038;7.008;2023-03-01T16:48:48;1036.50;;;947.33;;
4132;SDS011;2080;51.038;7.008;2023-03-01T16:51:14;1088.87;;;992.07;;
4132;SDS011;2080;51.038;7.008;2023-03-01T16:53:40;1190.67;;;999.90;;
4132;SDS011;2080;51.038;7.008;2023-03-01T16:56:11;776.67;;;707.57;;
4132;SDS011;2080;51.038;7.008;2023-03-01T16:58:39;612.67;;;550.90;;
4132;SDS011;2080;51.038;7.008;2023-03-01T17:01:17;493.93;;;422.57;;
4132;SDS011;2080;51.038;7.008;2023-03-01T17:03:45;979.80;;;894.67;;